createdAt,value
2022-08-07T00:02:35.609Z,23.23
2022-08-07T00:04:05.879Z,22.95
2022-08-07T00:06:33.883Z,22.90
2022-08-07T00:09:16.147Z,23.07
2022-08-07T00:11:54.476Z,23.06
2022-08-07T00:14:29.974Z,22.96
2022-08-07T00:17:01.938Z,22.90
2022-08-07T00:19:34.038Z,22.93
2022-08-07T00:22:02.074Z,22.77
2022-08-07T00:24:31.700Z,23.04
2022-08-07T00:27:07.184Z,22.89
2022-08-07T00:29:37.027Z,22.79
2022-08-07T00:32:06.749Z,22.71
2022-08-07T00:34:33.699Z,22.66
2022-08-07T00:37:05.082Z,22.64
2022-08-07T00:39:33.806Z,22.55
2022-08-07T00:42:02.270Z,22.56
2022-08-07T00:44:33.144Z,22.66
2022-08-07T00:47:04.112Z,22.53
2022-08-07T00:50:19.402Z,22.51
2022-08-07T00:52:20.339Z,22.50
2022-08-07T00:54:53.758Z,22.60
2022-08-07T00:57:26.100Z,22.79
2022-08-07T00:59:54.894Z,22.61
2022-08-07T01:02:28.648Z,22.55
2022-08-07T01:04:58.791Z,22.79
2022-08-07T01:07:29.529Z,22.71
2022-08-07T01:10:04.492Z,22.66
2022-08-07T01:12:35.620Z,22.58
2022-08-07T01:15:04.393Z,22.63
2022-08-07T01:17:32.562Z,22.67
2022-08-07T01:20:08.278Z,22.63
2022-08-07T01:22:37.734Z,22.51
2022-08-07T01:25:53.944Z,22.34
2022-08-07T01:28:01.701Z,22.24
2022-08-07T01:30:30.096Z,22.23
2022-08-07T01:32:57.351Z,21.96
2022-08-07T01:35:25.684Z,21.90
2022-08-07T01:38:12.844Z,21.58
2022-08-07T01:40:52.988Z,21.70
2022-08-07T01:43:20.613Z,21.50
2022-08-07T01:45:48.198Z,21.18
2022-08-07T01:48:30.364Z,21.14
2022-08-07T01:51:24.559Z,21.35
2022-08-07T01:54:09.385Z,21.26
2022-08-07T01:58:00.932Z,21.09
2022-08-07T02:00:12.935Z,21.01
2022-08-07T02:03:18.274Z,21.02
2022-08-07T02:06:00.036Z,20.84
2022-08-07T02:08:31.521Z,20.80
2022-08-07T02:11:00.839Z,20.77
2022-08-07T02:13:58.087Z,20.75
2022-08-07T02:16:28.852Z,20.74
2022-08-07T02:20:05.245Z,20.79
2022-08-07T02:21:58.540Z,20.68
2022-08-07T02:24:29.289Z,20.83
2022-08-07T02:27:00.093Z,20.78
2022-08-07T02:29:28.900Z,20.80
2022-08-07T02:31:57.959Z,20.82
2022-08-07T02:34:27.864Z,20.84
2022-08-07T02:36:58.071Z,20.71
2022-08-07T02:39:42.855Z,20.51
2022-08-07T02:42:16.276Z,20.53
2022-08-07T02:44:47.783Z,20.50
2022-08-07T02:47:19.584Z,20.20
2022-08-07T02:49:55.919Z,20.40
2022-08-07T02:52:53.248Z,20.31
2022-08-07T02:55:28.297Z,20.41
2022-08-07T02:58:17.375Z,20.56
2022-08-07T03:00:55.133Z,20.48
2022-08-07T03:03:49.341Z,20.40
2022-08-07T03:06:25.981Z,20.54
2022-08-07T03:09:01.780Z,20.63
2022-08-07T03:11:32.865Z,20.60
2022-08-07T03:14:08.637Z,20.55
2022-08-07T03:16:36.051Z,20.72
2022-08-07T03:19:05.875Z,20.64
2022-08-07T03:21:35.301Z,20.70
2022-08-07T03:24:19.630Z,20.55
2022-08-07T03:26:58.624Z,20.48
2022-08-07T03:29:33.716Z,20.31
2022-08-07T03:32:06.849Z,20.38
2022-08-07T03:34:39.163Z,20.44
2022-08-07T03:37:12.250Z,20.42
2022-08-07T03:39:59.373Z,20.45
2022-08-07T03:42:27.449Z,20.13
2022-08-07T03:44:58.071Z,20.21
2022-08-07T03:47:28.066Z,20.12
2022-08-07T03:49:59.950Z,20.17
2022-08-07T03:52:29.899Z,20.36
2022-08-07T03:55:06.781Z,20.36
2022-08-07T03:58:33.470Z,20.32
2022-08-07T04:00:30.125Z,20.47
2022-08-07T04:02:59.692Z,20.44
2022-08-07T04:05:40.471Z,20.44
2022-08-07T04:08:16.196Z,20.55
2022-08-07T04:10:54.795Z,20.53
2022-08-07T04:14:10.248Z,20.71
2022-08-07T04:16:30.800Z,20.52
2022-08-07T04:19:03.902Z,20.53
2022-08-07T04:21:33.595Z,20.66
2022-08-07T04:24:07.319Z,20.54
2022-08-07T04:26:35.010Z,20.51
2022-08-07T04:29:03.097Z,20.76
2022-08-07T04:31:39.167Z,20.76
2022-08-07T04:34:27.321Z,20.62
2022-08-07T04:37:01.099Z,20.64
2022-08-07T04:39:35.869Z,20.61
2022-08-07T04:42:04.181Z,20.50
2022-08-07T04:44:31.205Z,20.44
2022-08-07T04:47:09.682Z,20.53
2022-08-07T04:49:57.916Z,20.62
2022-08-07T04:52:52.906Z,20.77
2022-08-07T04:58:16.617Z,20.76
2022-08-07T05:00:09.634Z,20.81
2022-08-07T05:02:24.345Z,20.92
2022-08-07T05:05:01.063Z,21.04
2022-08-07T05:07:44.254Z,21.04
2022-08-07T05:10:29.312Z,21.20
2022-08-07T05:13:10.109Z,21.25
2022-08-07T05:15:53.786Z,21.26
2022-08-07T05:18:27.241Z,21.42
2022-08-07T05:21:02.429Z,21.48
2022-08-07T05:23:39.837Z,21.38
2022-08-07T05:26:18.729Z,21.66
2022-08-07T05:28:55.670Z,21.64
2022-08-07T05:31:34.625Z,21.62
2022-08-07T05:34:05.596Z,21.79
2022-08-07T05:36:42.358Z,21.95
2022-08-07T05:40:04.981Z,22.15
2022-08-07T05:42:01.227Z,21.95
2022-08-07T05:44:35.490Z,22.22
2022-08-07T05:47:17.785Z,22.29
2022-08-07T05:49:49.013Z,22.08
2022-08-07T05:52:32.276Z,22.06
2022-08-07T05:55:07.244Z,22.04
2022-08-07T05:57:42.119Z,21.90
2022-08-07T06:00:16.087Z,22.23
2022-08-07T06:02:48.002Z,22.05
2022-08-07T06:05:16.134Z,22.07
2022-08-07T06:08:14.571Z,22.04
2022-08-07T06:10:31.586Z,22.45
2022-08-07T06:13:01.047Z,22.29
2022-08-07T06:15:42.081Z,22.57
2022-08-07T06:18:12.217Z,22.73
2022-08-07T06:20:50.350Z,23.01
2022-08-07T06:24:38.584Z,23.29
2022-08-07T06:26:20.938Z,23.33
2022-08-07T06:28:55.306Z,23.16
2022-08-07T06:31:24.171Z,23.28
2022-08-07T06:34:08.393Z,22.85
2022-08-07T06:36:38.969Z,22.93
2022-08-07T06:40:15.858Z,22.76
2022-08-07T06:42:06.450Z,22.57
2022-08-07T06:44:39.787Z,22.52
2022-08-07T06:47:12.552Z,22.38
2022-08-07T06:49:52.339Z,22.67
2022-08-07T06:52:35.774Z,22.32
2022-08-07T06:55:33.521Z,22.47
2022-08-07T06:58:10.494Z,22.43
2022-08-07T07:00:42.355Z,22.29
2022-08-07T07:03:14.396Z,22.40
2022-08-07T07:06:05.453Z,22.51
2022-08-07T07:08:33.532Z,22.67
2022-08-07T07:11:13.097Z,22.99
2022-08-07T07:13:58.357Z,23.38
2022-08-07T07:16:39.206Z,23.08
2022-08-07T07:19:54.670Z,22.99
2022-08-07T07:22:33.785Z,22.99
2022-08-07T07:25:14.205Z,23.75
2022-08-07T07:28:42.776Z,23.37
2022-08-07T07:31:30.452Z,23.64
2022-08-07T07:34:09.649Z,24.01
2022-08-07T07:36:40.523Z,23.91
2022-08-07T07:39:09.217Z,24.32
2022-08-07T07:42:02.337Z,24.19
2022-08-07T07:44:29.269Z,24.55
2022-08-07T07:47:12.080Z,24.38
2022-08-07T07:50:32.443Z,24.43
2022-08-07T07:52:35.973Z,24.76
2022-08-07T07:55:07.970Z,24.17
2022-08-07T07:57:51.816Z,23.83
2022-08-07T08:00:29.507Z,23.96
2022-08-07T08:03:08.088Z,24.14
2022-08-07T08:05:50.468Z,24.31
2022-08-07T08:08:34.602Z,24.36
2022-08-07T08:11:09.261Z,23.96
2022-08-07T08:13:54.348Z,24.00
2022-08-07T08:16:32.763Z,24.33
2022-08-07T08:19:09.644Z,24.48
2022-08-07T08:22:07.841Z,24.44
2022-08-07T08:25:09.404Z,24.79
2022-08-07T08:27:56.380Z,24.99
2022-08-07T08:30:26.064Z,25.08
2022-08-07T08:32:54.651Z,25.45
2022-08-07T08:35:28.631Z,25.44
2022-08-07T08:38:04.746Z,25.84
2022-08-07T08:40:43.771Z,25.82
2022-08-07T08:43:42.282Z,25.95
2022-08-07T08:46:25.327Z,25.96
2022-08-07T08:49:32.886Z,25.75
2022-08-07T08:52:14.325Z,25.49
2022-08-07T08:55:01.204Z,25.56
2022-08-07T08:57:47.925Z,26.00
2022-08-07T09:00:17.390Z,26.21
2022-08-07T09:03:14.918Z,26.31
2022-08-07T09:05:55.076Z,26.50
2022-08-07T09:08:39.278Z,26.77
2022-08-07T09:11:43.423Z,26.87
2022-08-07T09:14:15.171Z,26.38
2022-08-07T09:17:07.914Z,26.49
2022-08-07T09:20:02.338Z,26.59
2022-08-07T09:24:32.557Z,27.06
2022-08-07T09:26:08.077Z,26.92
2022-08-07T09:30:03.367Z,26.73
2022-08-07T09:31:50.532Z,26.49
2022-08-07T09:34:53.705Z,26.16
2022-08-07T09:37:54.250Z,26.48
2022-08-07T09:40:42.847Z,26.65
2022-08-07T09:44:03.254Z,26.55
2022-08-07T09:47:24.304Z,26.79
2022-08-07T09:50:01.949Z,27.07
2022-08-07T09:52:48.565Z,27.15
2022-08-07T09:56:02.394Z,26.98
2022-08-07T09:59:07.594Z,27.58
2022-08-07T10:02:05.330Z,27.12
2022-08-07T10:04:45.868Z,27.64
2022-08-07T10:07:52.335Z,27.63
2022-08-07T10:10:53.871Z,27.59
2022-08-07T10:13:54.908Z,27.95
2022-08-07T10:16:30.717Z,27.89
2022-08-07T10:19:52.524Z,28.22
2022-08-07T10:23:07.571Z,27.99
2022-08-07T10:26:07.419Z,27.55
2022-08-07T10:28:50.882Z,27.79
2022-08-07T10:31:56.150Z,27.98
2022-08-07T10:34:45.342Z,27.56
2022-08-07T10:37:59.876Z,27.77
2022-08-07T10:40:43.334Z,28.07
2022-08-07T10:43:13.038Z,27.68
2022-08-07T10:45:58.284Z,27.98
2022-08-07T10:48:48.871Z,27.26
2022-08-07T10:51:57.250Z,28.02
2022-08-07T10:54:18.630Z,28.46
2022-08-07T10:57:00.566Z,28.50
2022-08-07T11:00:09.032Z,28.21
2022-08-07T11:03:03.620Z,28.46
2022-08-07T11:06:02.993Z,28.58
2022-08-07T11:08:39.933Z,28.67
2022-08-07T11:11:24.512Z,29.07
2022-08-07T11:14:43.409Z,29.07
2022-08-07T11:16:54.735Z,29.00
2022-08-07T11:19:51.917Z,29.46
2022-08-07T11:22:46.293Z,29.11
2022-08-07T11:25:16.408Z,29.36
2022-08-07T11:28:02.405Z,29.54
2022-08-07T11:31:13.501Z,29.26
2022-08-07T11:34:04.142Z,29.03
2022-08-07T11:37:24.538Z,29.23
2022-08-07T11:40:24.522Z,29.19
2022-08-07T11:43:04.338Z,29.59
2022-08-07T11:46:08.357Z,29.49
2022-08-07T11:49:50.777Z,29.03
2022-08-07T11:52:29.344Z,29.63
2022-08-07T11:55:19.015Z,29.41
2022-08-07T11:58:16.513Z,29.44
2022-08-07T12:01:22.265Z,29.54
2022-08-07T12:04:04.724Z,29.47
2022-08-07T12:06:51.805Z,28.98
2022-08-07T12:09:51.066Z,29.20
2022-08-07T12:12:24.363Z,29.08
2022-08-07T12:15:01.266Z,29.56
2022-08-07T12:17:58.860Z,29.65
2022-08-07T12:20:46.410Z,29.23
2022-08-07T12:24:04.921Z,28.78
2022-08-07T12:26:40.545Z,29.06
2022-08-07T12:29:37.787Z,29.59
2022-08-07T12:32:20.988Z,29.19
2022-08-07T12:34:56.223Z,29.39
2022-08-07T12:37:28.311Z,29.44
2022-08-07T12:40:46.809Z,29.50
2022-08-07T12:43:10.114Z,29.71
2022-08-07T12:46:08.195Z,29.39
2022-08-07T12:48:55.090Z,28.76
2022-08-07T12:51:46.561Z,29.28
2022-08-07T12:54:37.878Z,29.20
2022-08-07T12:57:09.686Z,29.27
2022-08-07T12:59:54.939Z,29.75
2022-08-07T13:02:37.714Z,29.03
2022-08-07T13:06:04.429Z,28.69
2022-08-07T13:08:18.858Z,29.02
2022-08-07T13:11:16.131Z,28.99
2022-08-07T13:14:19.216Z,29.11
2022-08-07T13:17:02.420Z,29.86
2022-08-07T13:20:04.888Z,29.50
2022-08-07T13:22:40.096Z,29.97
2022-08-07T13:25:29.629Z,29.92
2022-08-07T13:28:11.281Z,29.54
2022-08-07T13:30:48.977Z,30.08
2022-08-07T13:34:31.001Z,29.90
2022-08-07T13:36:28.710Z,29.99
2022-08-07T13:40:34.291Z,29.98
2022-08-07T13:42:27.993Z,30.31
2022-08-07T13:45:40.632Z,30.26
2022-08-07T13:48:08.125Z,30.25
2022-08-07T13:51:00.141Z,30.28
2022-08-07T13:53:24.034Z,30.30
2022-08-07T13:55:54.326Z,30.20
2022-08-07T13:58:56.308Z,29.98
2022-08-07T14:01:51.215Z,29.99
2022-08-07T14:04:29.731Z,29.87
2022-08-07T14:07:09.616Z,30.01
2022-08-07T14:10:16.503Z,30.43
2022-08-07T14:12:36.162Z,30.57
2022-08-07T14:15:16.710Z,29.99
2022-08-07T14:18:15.800Z,30.19
2022-08-07T14:20:49.091Z,30.48
2022-08-07T14:23:59.278Z,30.40
2022-08-07T14:26:28.495Z,30.26
2022-08-07T14:29:08.517Z,30.28
2022-08-07T14:31:56.110Z,30.31
2022-08-07T14:34:32.018Z,30.77
2022-08-07T14:37:03.185Z,30.21
2022-08-07T14:40:15.784Z,30.01
2022-08-07T14:42:31.347Z,30.53
2022-08-07T14:45:21.766Z,30.38
2022-08-07T14:47:53.069Z,30.23
2022-08-07T14:50:27.988Z,30.10
2022-08-07T14:52:57.210Z,30.23
2022-08-07T14:55:35.863Z,30.09
2022-08-07T14:58:31.778Z,30.18
2022-08-07T15:01:22.031Z,30.09
2022-08-07T15:03:53.415Z,30.10
2022-08-07T15:06:29.301Z,30.10
2022-08-07T15:09:58.953Z,30.02
2022-08-07T15:12:01.580Z,29.58
2022-08-07T15:14:30.861Z,29.83
2022-08-07T15:17:00.593Z,29.97
2022-08-07T15:20:30.339Z,29.83
2022-08-07T15:22:31.447Z,29.63
2022-08-07T15:25:18.504Z,29.98
2022-08-07T15:28:33.019Z,29.91
2022-08-07T15:31:05.238Z,29.75
2022-08-07T15:33:38.632Z,29.99
2022-08-07T15:36:10.669Z,29.63
2022-08-07T15:38:51.460Z,29.68
2022-08-07T15:42:46.871Z,29.74
2022-08-07T15:44:23.597Z,29.43
2022-08-07T15:50:05.634Z,29.67
2022-08-07T15:52:36.605Z,29.27
2022-08-07T15:55:09.007Z,29.48
2022-08-07T15:57:48.544Z,29.25
2022-08-07T16:00:32.233Z,29.20
2022-08-07T16:03:05.349Z,29.39
2022-08-07T16:05:34.528Z,29.53
2022-08-07T16:08:31.978Z,29.26
2022-08-07T16:11:33.807Z,29.18
2022-08-07T16:14:19.920Z,29.41
2022-08-07T16:18:02.030Z,29.36
2022-08-07T16:20:33.494Z,29.19
2022-08-07T16:23:53.019Z,29.16
2022-08-07T16:26:06.794Z,29.01
2022-08-07T16:30:09.272Z,29.03
2022-08-07T16:31:58.542Z,28.98
2022-08-07T16:34:48.301Z,28.76
2022-08-07T16:38:03.448Z,28.82
2022-08-07T16:40:33.329Z,28.72
2022-08-07T16:43:21.782Z,28.68
2022-08-07T16:47:05.621Z,28.60
2022-08-07T16:50:28.246Z,28.66
2022-08-07T16:52:41.669Z,28.63
2022-08-07T16:55:17.718Z,28.62
2022-08-07T16:58:02.061Z,28.49
2022-08-07T17:00:42.370Z,28.30
2022-08-07T17:03:19.547Z,28.37
2022-08-07T17:06:42.727Z,28.32
2022-08-07T17:10:05.448Z,28.31
2022-08-07T17:12:33.903Z,28.25
2022-08-07T17:15:19.918Z,28.13
2022-08-07T17:17:47.507Z,28.11
2022-08-07T17:20:37.358Z,28.14
2022-08-07T17:23:35.993Z,27.93
2022-08-07T17:26:22.569Z,27.97
2022-08-07T17:28:57.283Z,27.86
2022-08-07T17:31:44.234Z,27.76
2022-08-07T17:34:57.075Z,27.62
2022-08-07T17:38:06.078Z,27.56
2022-08-07T17:41:12.342Z,27.35
2022-08-07T17:44:01.622Z,27.21
2022-08-07T17:47:09.055Z,27.08
2022-08-07T17:50:16.628Z,26.96
2022-08-07T17:53:59.654Z,26.83
2022-08-07T17:56:13.617Z,26.79
2022-08-07T17:58:56.935Z,26.69
2022-08-07T18:01:36.867Z,26.78
2022-08-07T18:04:34.695Z,26.62
2022-08-07T18:07:20.234Z,26.54
2022-08-07T18:10:05.856Z,26.33
2022-08-07T18:12:55.593Z,26.18
2022-08-07T18:15:32.814Z,26.08
2022-08-07T18:18:46.695Z,25.91
2022-08-07T18:21:37.088Z,25.77
2022-08-07T18:24:09.015Z,25.74
2022-08-07T18:27:11.741Z,25.69
2022-08-07T18:30:05.702Z,25.69
2022-08-07T18:33:11.976Z,25.58
2022-08-07T18:35:57.401Z,25.60
2022-08-07T18:38:58.894Z,25.53
2022-08-07T18:41:48.863Z,25.45
2022-08-07T18:45:44.168Z,25.27
2022-08-07T18:48:00.765Z,25.24
2022-08-07T18:50:47.076Z,25.26
2022-08-07T18:53:39.259Z,24.93
2022-08-07T18:56:40.665Z,25.10
2022-08-07T18:59:46.965Z,24.95
2022-08-07T19:02:52.628Z,24.93
2022-08-07T19:06:01.852Z,24.83
2022-08-07T19:08:29.012Z,24.63
2022-08-07T19:11:15.535Z,24.71
2022-08-07T19:14:17.361Z,24.69
2022-08-07T19:17:05.612Z,24.64
2022-08-07T19:19:50.190Z,24.65
2022-08-07T19:22:30.345Z,24.65
2022-08-07T19:25:05.682Z,24.60
2022-08-07T19:28:57.061Z,24.45
2022-08-07T19:31:04.458Z,24.52
2022-08-07T19:33:18.956Z,24.45
2022-08-07T19:36:01.815Z,24.25
2022-08-07T19:38:34.110Z,24.40
2022-08-07T19:41:02.753Z,24.25
2022-08-07T19:43:48.612Z,24.28
2022-08-07T19:46:26.793Z,24.31
2022-08-07T19:49:57.581Z,24.37
2022-08-07T19:52:09.869Z,24.27
2022-08-07T19:54:56.556Z,24.19
2022-08-07T19:58:03.045Z,24.14
2022-08-07T20:00:36.602Z,23.90
2022-08-07T20:03:35.453Z,23.93
2022-08-07T20:06:03.572Z,23.83
2022-08-07T20:08:34.527Z,23.79
2022-08-07T20:11:15.087Z,23.57
2022-08-07T20:13:56.529Z,23.71
2022-08-07T20:16:36.450Z,23.63
2022-08-07T20:19:10.118Z,23.58
2022-08-07T20:21:46.619Z,23.58
2022-08-07T20:24:28.619Z,23.64
2022-08-07T20:27:02.697Z,23.67
2022-08-07T20:29:48.338Z,23.62
2022-08-07T20:32:40.388Z,23.62
2022-08-07T20:35:15.919Z,23.59
2022-08-07T20:37:59.113Z,23.49
2022-08-07T20:40:34.650Z,23.35
2022-08-07T20:43:09.494Z,23.39
2022-08-07T20:46:26.007Z,23.32
2022-08-07T20:48:34.679Z,23.32
2022-08-07T20:51:04.111Z,23.42
2022-08-07T20:54:03.946Z,23.43
2022-08-07T20:56:29.049Z,23.25
2022-08-07T20:59:01.782Z,23.24
2022-08-07T21:01:45.829Z,23.38
2022-08-07T21:04:22.370Z,23.34
2022-08-07T21:06:55.330Z,23.40
2022-08-07T21:09:35.338Z,23.32
2022-08-07T21:12:28.916Z,23.38
2022-08-07T21:14:59.710Z,23.28
2022-08-07T21:18:03.269Z,23.23
2022-08-07T21:20:29.701Z,23.14
2022-08-07T21:23:08.138Z,23.13
2022-08-07T21:25:38.898Z,23.09
2022-08-07T21:28:50.103Z,22.98
2022-08-07T21:32:41.918Z,22.94
2022-08-07T21:34:46.106Z,22.84
2022-08-07T21:37:57.886Z,22.76
2022-08-07T21:40:41.101Z,22.67
2022-08-07T21:43:23.268Z,22.56
2022-08-07T21:46:24.582Z,22.35
2022-08-07T21:49:15.165Z,22.51
2022-08-07T21:52:01.713Z,22.52
2022-08-07T21:54:34.480Z,22.58
2022-08-07T21:57:31.279Z,22.55
2022-08-07T22:00:22.074Z,22.52
2022-08-07T22:03:16.707Z,22.48
2022-08-07T22:06:04.030Z,22.37
2022-08-07T22:08:46.474Z,22.19
2022-08-07T22:11:18.406Z,22.02
2022-08-07T22:13:55.101Z,21.93
2022-08-07T22:17:00.125Z,21.96
2022-08-07T22:19:37.119Z,21.86
2022-08-07T22:22:29.153Z,21.86
2022-08-07T22:25:07.496Z,21.80
2022-08-07T22:28:07.464Z,21.83
2022-08-07T22:31:05.610Z,21.83
2022-08-07T22:33:56.254Z,21.79
2022-08-07T22:36:38.474Z,21.85
2022-08-07T22:39:28.872Z,21.66
2022-08-07T22:42:54.097Z,21.76
2022-08-07T22:45:11.020Z,21.70
2022-08-07T22:48:13.666Z,21.76
2022-08-07T22:51:36.705Z,21.74
2022-08-07T22:54:20.237Z,21.75
2022-08-07T22:57:17.025Z,21.50
2022-08-07T23:00:13.601Z,21.47
2022-08-07T23:03:02.343Z,21.36
2022-08-07T23:06:08.273Z,21.25
2022-08-07T23:10:06.454Z,21.34
2022-08-07T23:12:32.753Z,21.24
2022-08-07T23:16:05.432Z,21.13
2022-08-07T23:18:42.334Z,21.15
2022-08-07T23:21:37.016Z,21.08
2022-08-07T23:24:05.888Z,21.14
2022-08-07T23:26:59.184Z,21.01
2022-08-07T23:30:36.128Z,21.01
2022-08-07T23:34:36.192Z,20.98
2022-08-07T23:36:17.231Z,20.94
2022-08-07T23:39:14.941Z,20.91
2022-08-07T23:42:07.055Z,20.74
2022-08-07T23:44:55.980Z,20.64
2022-08-07T23:47:42.110Z,20.78
2022-08-07T23:50:35.368Z,20.79
2022-08-07T23:53:51.576Z,20.71
2022-08-07T23:56:26.871Z,20.55
2022-08-07T23:59:10.693Z,20.45
